Time;durP1;ratioP1;P1;durP2;ratioP2;P2;SDS_P1;SDS_P2;PMS_P1;PMS_P2;Temp;Humidity;BMP_temperature;BMP_pressure;BME280_temperature;BME280_humidity;BME280_pressure;Samples;Min_cycle;Max_cycle;Signal;HPM_P1;HPM_P2
2023/05/06 00:00:11;;;;;;;4.23;1.97;;;12.00;99.90;;;12.78;100.00;98190.72;4924327;29;20533;-77
2023/05/06 00:02:40;;;;;;;3.40;1.77;;;11.90;99.90;;;12.78;100.00;98190.72;4922086;29;20818;-77
2023/05/06 00:05:10;;;;;;;2.73;2.07;;;12.00;99.90;;;12.72;100.00;98181.00;4923586;29;21198;-77
2023/05/06 00:07:41;;;;;;;3.90;2.63;;;12.00;99.90;;;12.69;100.00;98186.66;4925191;29;21995;-77
2023/05/06 00:10:10;;;;;;;3.70;1.90;;;11.90;99.90;;;12.66;100.00;98177.38;4925277;29;20509;-77
2023/05/06 00:12:39;;;;;;;2.87;1.83;;;11.90;99.90;;;12.61;100.00;98175.31;4923961;29;20502;-76
2023/05/06 00:15:09;;;;;;;1.83;1.70;;;11.80;99.90;;;12.62;100.00;98184.00;4924816;29;20463;-76
2023/05/06 00:17:38;;;;;;;2.47;1.90;;;11.90;99.90;;;12.61;100.00;98185.81;4924430;29;20989;-76
2023/05/06 00:20:11;;;;;;;3.27;1.70;;;11.90;99.90;;;12.60;100.00;98186.00;4925090;29;20471;-77
2023/05/06 00:22:41;;;;;;;3.57;2.10;;;11.80;99.90;;;12.56;100.00;98182.19;4924750;29;20478;-77
2023/05/06 00:25:11;;;;;;;2.30;1.97;;;11.80;99.90;;;12.51;100.00;98182.75;4924099;29;20478;-76
2023/05/06 00:27:40;;;;;;;2.73;1.33;;;11.80;99.90;;;12.48;100.00;98191.03;4924335;29;20553;-76
2023/05/06 00:30:13;;;;;;;1.73;1.50;;;11.80;99.90;;;12.50;100.00;98194.25;4923489;29;20502;-77
2023/05/06 00:32:42;;;;;;;4.83;1.73;;;11.70;99.90;;;12.50;100.00;98193.44;4924978;29;21130;-77
2023/05/06 00:35:11;;;;;;;3.03;1.73;;;11.70;99.90;;;12.45;100.00;98191.41;4925231;29;20471;-76
2023/05/06 00:37:45;;;;;;;2.17;1.60;;;11.70;99.90;;;12.43;100.00;98179.47;4924930;29;20490;-76
2023/05/06 00:40:14;;;;;;;3.30;1.90;;;11.70;99.90;;;12.40;100.00;98183.31;4925118;29;20549;-76
2023/05/06 00:42:42;;;;;;;3.43;1.93;;;11.60;99.90;;;12.32;100.00;98186.09;4924938;29;20470;-77
2023/05/06 00:45:12;;;;;;;7.90;2.13;;;11.60;99.90;;;12.28;100.00;98184.88;4924582;29;20455;-77
2023/05/06 00:47:42;;;;;;;4.67;1.60;;;11.60;99.90;;;12.25;100.00;98190.47;4924969;29;20903;-77
2023/05/06 00:50:11;;;;;;;2.27;1.70;;;11.50;99.90;;;12.25;100.00;98200.97;4926241;29;20534;-76
2023/05/06 00:52:41;;;;;;;3.43;1.80;;;11.50;99.90;;;12.26;100.00;98199.97;4924643;29;20505;-76
2023/05/06 00:55:11;;;;;;;2.50;2.17;;;11.40;99.90;;;12.26;100.00;98197.34;4925994;29;20470;-77
2023/05/06 00:57:40;;;;;;;3.57;2.00;;;11.40;99.90;;;12.20;100.00;98198.13;4924351;29;20480;-76
2023/05/06 01:00:11;;;;;;;3.90;2.17;;;11.40;99.90;;;12.23;100.00;98189.06;4922182;29;20465;-76
2023/05/06 01:02:39;;;;;;;3.27;2.00;;;11.40;99.90;;;12.18;100.00;98188.84;4923904;29;20470;-77
2023/05/06 01:05:17;;;;;;;3.90;1.73;;;11.40;99.90;;;12.18;100.00;98192.28;4922443;29;20465;-76
2023/05/06 01:08:01;;;;;;;4.37;1.60;;;11.40;99.90;;;12.16;100.00;98185.59;4926156;29;20470;-76
2023/05/06 01:10:38;;;;;;;16.47;2.33;;;11.40;99.90;;;12.15;100.00;98187.41;4923676;29;20501;-76
2023/05/06 01:13:21;;;;;;;3.30;2.00;;;11.30;99.90;;;12.19;100.00;98186.03;4924324;29;20597;-76
2023/05/06 01:15:56;;;;;;;4.67;1.60;;;11.30;99.90;;;12.15;100.00;98186.63;4921241;29;20897;-77
2023/05/06 01:18:31;;;;;;;1.83;1.67;;;11.30;99.90;;;12.15;100.00;98184.78;4919402;29;20470;-76
2023/05/06 01:21:02;;;;;;;2.67;2.07;;;11.30;99.90;;;12.15;100.00;98184.78;4919924;29;20461;-76
2023/05/06 01:23:50;;;;;;;5.70;1.90;;;11.40;99.90;;;12.18;100.00;98184.44;4922222;29;21026;-76
2023/05/06 01:26:19;;;;;;;3.07;1.80;;;11.30;99.90;;;12.14;100.00;98183.19;4925089;29;20467;-77
2023/05/06 01:28:49;;;;;;;10.93;1.93;;;11.40;99.90;;;12.09;100.00;98185.56;4923673;29;20561;-77
2023/05/06 01:31:26;;;;;;;5.00;1.97;;;11.40;99.90;;;12.05;100.00;98181.72;4923457;29;20533;-77
2023/05/06 01:34:14;;;;;;;3.67;1.60;;;11.30;99.90;;;12.03;100.00;98181.09;4923248;29;20467;-77
2023/05/06 01:36:58;;;;;;;3.20;2.03;;;11.40;99.90;;;12.06;100.00;98183.34;4926437;29;21105;-76
2023/05/06 01:39:31;;;;;;;2.90;1.80;;;11.40;99.90;;;12.08;100.00;98178.69;4926966;29;21189;-77
2023/05/06 01:42:02;;;;;;;2.23;1.60;;;11.30;99.90;;;12.10;100.00;98182.78;4929630;29;20549;-76
2023/05/06 01:44:37;;;;;;;4.17;1.50;;;11.30;99.90;;;12.14;100.00;98187.63;4926609;29;20474;-77
2023/05/06 01:47:08;;;;;;;2.50;1.80;;;11.30;99.90;;;12.13;100.00;98192.03;4925384;29;20494;-77
2023/05/06 01:49:38;;;;;;;5.57;2.10;;;11.30;99.90;;;12.15;100.00;98184.00;4928632;29;20472;-77
2023/05/06 01:52:06;;;;;;;1.60;1.50;;;11.40;99.90;;;12.17;100.00;98187.22;4925637;29;21060;-77
2023/05/06 01:54:36;;;;;;;3.23;1.77;;;11.30;99.90;;;12.19;100.00;98185.22;4926835;29;21030;-76
2023/05/06 01:57:05;;;;;;;8.13;2.10;;;11.40;99.90;;;12.19;100.00;98195.69;4926861;29;20501;-76
2023/05/06 01:59:33;;;;;;;1.60;1.40;;;11.40;99.90;;;12.15;100.00;98190.03;4925931;29;20526;-77
2023/05/06 02:02:03;;;;;;;2.30;1.60;;;11.30;99.90;;;12.15;100.00;98190.03;4926832;29;21052;-75
2023/05/06 02:04:33;;;;;;;5.80;1.63;;;11.40;99.90;;;12.19;100.00;98191.25;4927056;29;21263;-77
2023/05/06 02:07:01;;;;;;;2.00;1.67;;;11.40;99.90;;;12.20;100.00;98198.13;4927271;29;22114;-77
2023/05/06 02:09:30;;;;;;;1.93;1.73;;;11.40;99.90;;;12.19;100.00;98201.75;4927006;29;20477;-76
2023/05/06 02:12:00;;;;;;;2.63;1.90;;;11.40;99.90;;;12.19;100.00;98195.69;4926781;29;20494;-76
2023/05/06 02:14:29;;;;;;;2.93;1.80;;;11.40;99.90;;;12.16;100.00;98196.09;4927749;29;20458;-76
2023/05/06 02:16:58;;;;;;;1.73;1.63;;;11.40;99.90;;;12.20;100.00;98198.13;4923967;29;20478;-76
2023/05/06 02:19:27;;;;;;;2.50;1.50;;;11.40;99.90;;;12.23;100.00;98195.13;4917608;29;20466;-76
2023/05/06 02:21:56;;;;;;;3.50;1.90;;;11.40;99.90;;;12.21;100.00;98198.94;4915192;29;20538;-77
2023/05/06 02:24:26;;;;;;;4.20;1.70;;;11.40;99.90;;;12.22;100.00;98183.00;4920240;29;20459;-76
2023/05/06 02:26:55;;;;;;;5.43;1.80;;;11.40;99.90;;;12.24;100.00;98183.66;4900958;29;20467;-76
2023/05/06 02:29:26;;;;;;;2.43;2.17;;;11.50;99.90;;;12.24;100.00;98178.41;4918663;29;21000;-76
2023/05/06 02:31:54;;;;;;;6.97;1.93;;;11.50;99.90;;;12.25;100.00;98180.00;4917048;29;20750;-76
2023/05/06 02:34:23;;;;;;;3.00;2.00;;;11.50;99.90;;;12.24;100.00;98167.91;4920446;29;20796;-76
2023/05/06 02:36:52;;;;;;;3.03;1.70;;;11.50;99.90;;;12.25;100.00;98169.50;4916407;29;20503;-76
2023/05/06 02:39:21;;;;;;;4.03;1.67;;;11.50;99.90;;;12.28;100.00;98174.41;4916812;29;20832;-76
2023/05/06 02:41:50;;;;;;;2.30;1.60;;;11.50;99.90;;;12.29;100.00;98162.88;4917960;29;20506;-76
2023/05/06 02:44:20;;;;;;;2.57;1.70;;;11.50;99.90;;;12.29;100.00;98162.06;4916929;29;20897;-76
2023/05/06 02:46:50;;;;;;;2.77;1.50;;;11.50;99.90;;;12.26;100.00;98151.97;4918948;29;20503;-76
2023/05/06 02:49:20;;;;;;;4.60;1.80;;;11.50;99.90;;;12.26;100.00;98152.78;4917578;29;20466;-76
2023/05/06 02:51:50;;;;;;;5.10;2.10;;;11.50;99.90;;;12.25;100.00;98159.03;4914969;29;20467;-76
2023/05/06 02:54:18;;;;;;;4.00;1.70;;;11.50;99.90;;;12.28;100.00;98163.09;4901227;29;20586;-76
2023/05/06 02:56:47;;;;;;;3.27;1.70;;;11.50;99.90;;;12.26;100.00;98158.03;4914377;29;21048;-76
2023/05/06 02:59:18;;;;;;;1.60;1.50;;;11.50;99.90;;;12.25;100.00;98164.25;4921025;29;20537;-76
2023/05/06 03:01:49;;;;;;;3.60;1.30;;;11.50;99.90;;;12.18;100.00;98152.97;4917937;29;20999;-76
2023/05/06 03:04:18;;;;;;;3.73;1.40;;;11.50;99.90;;;12.22;100.00;98153.38;4918523;29;20843;-76
2023/05/06 03:06:46;;;;;;;2.30;1.63;;;11.50;99.90;;;12.24;100.00;98162.66;4914665;29;21093;-77
2023/05/06 03:09:16;;;;;;;2.13;1.60;;;11.50;99.90;;;12.25;100.00;98160.88;4918569;29;20529;-76
2023/05/06 03:11:46;;;;;;;2.20;1.50;;;11.50;99.90;;;12.26;100.00;98160.66;4918032;29;20542;-77
2023/05/06 03:14:14;;;;;;;2.40;1.57;;;11.40;99.90;;;12.25;100.00;98161.66;4920095;29;20518;-76
2023/05/06 03:16:43;;;;;;;3.37;1.57;;;11.40;99.90;;;12.24;100.00;98162.66;4921367;29;20954;-76
2023/05/06 03:19:14;;;;;;;1.80;1.40;;;11.40;99.90;;;12.21;100.00;98168.31;4918462;29;20958;-76
2023/05/06 03:21:42;;;;;;;2.10;1.90;;;11.40;99.90;;;12.18;100.00;98163.47;4900083;29;20471;-76
2023/05/06 03:24:11;;;;;;;1.80;1.40;;;11.40;99.90;;;12.13;100.00;98165.03;4919530;29;21035;-76
2023/05/06 03:26:40;;;;;;;1.70;1.37;;;11.40;99.90;;;12.14;100.00;98161.41;4919829;29;20763;-77
2023/05/06 03:29:10;;;;;;;4.93;2.10;;;11.40;99.90;;;12.13;100.00;98165.84;4919672;29;20466;-76
2023/05/06 03:31:39;;;;;;;3.73;1.73;;;11.40;99.90;;;12.13;100.00;98171.06;4920958;29;21076;-76
2023/05/06 03:34:08;;;;;;;3.73;1.60;;;11.40;99.90;;;12.14;100.00;98167.47;4921161;29;20491;-76
2023/05/06 03:36:38;;;;;;;1.60;1.30;;;11.40;99.90;;;12.09;100.00;98164.59;4921090;29;20474;-76
2023/05/06 03:39:07;;;;;;;2.20;1.50;;;11.40;99.90;;;12.05;100.00;98169.41;4920676;29;20546;-77
2023/05/06 03:41:36;;;;;;;7.00;1.73;;;11.30;99.90;;;12.04;100.00;98172.25;4920567;29;20474;-76
2023/05/06 03:44:05;;;;;;;1.60;1.50;;;11.30;99.90;;;12.01;100.00;98173.41;4920969;29;20474;-76
2023/05/06 03:46:34;;;;;;;2.53;1.40;;;11.30;99.90;;;12.01;100.00;98172.59;4920766;29;20462;-76
2023/05/06 03:49:03;;;;;;;1.77;1.57;;;11.20;99.90;;;12.00;100.00;98177.06;4920898;29;20467;-77
2023/05/06 03:51:33;;;;;;;2.80;1.47;;;11.20;99.90;;;11.97;100.00;98172.22;4920232;29;20483;-76
2023/05/06 03:54:04;;;;;;;2.60;1.90;;;11.20;99.90;;;11.92;100.00;98169.34;4920914;29;20589;-77
2023/05/06 03:56:32;;;;;;;1.90;1.40;;;11.20;99.90;;;11.89;100.00;98179.41;4919800;29;20726;-76
2023/05/06 03:59:01;;;;;;;2.00;1.40;;;11.20;99.90;;;11.84;100.00;98176.53;4920213;29;20998;-76
2023/05/06 04:01:30;;;;;;;4.70;1.60;;;11.10;99.90;;;11.80;100.00;98177.94;4918562;29;20545;-76
2023/05/06 04:03:59;;;;;;;2.37;1.60;;;11.10;99.90;;;11.79;100.00;98178.94;4918377;29;20598;-76
2023/05/06 04:06:28;;;;;;;1.57;1.47;;;11.10;99.90;;;11.82;100.00;98178.53;4915411;29;20751;-76
2023/05/06 04:08:56;;;;;;;2.00;1.70;;;11.00;99.90;;;11.85;100.00;98180.78;4916617;29;20485;-76
2023/05/06 04:11:27;;;;;;;3.63;1.60;;;11.00;99.90;;;11.87;100.00;98170.94;4913830;29;20570;-76
2023/05/06 04:13:57;;;;;;;1.50;1.40;;;11.00;99.90;;;11.88;100.00;98173.34;4915938;29;20536;-76
2023/05/06 04:16:25;;;;;;;2.27;1.80;;;11.10;99.90;;;11.89;100.00;98174.16;4918246;29;20739;-77
2023/05/06 04:18:55;;;;;;;1.73;1.57;;;11.10;99.90;;;11.92;100.00;98173.78;4920572;29;20543;-76
2023/05/06 04:21:24;;;;;;;4.87;1.80;;;11.10;99.90;;;11.94;100.00;98177.03;4918106;29;20463;-76
2023/05/06 04:23:53;;;;;;;3.10;1.70;;;11.10;99.90;;;11.96;100.00;98177.63;4920735;29;20494;-76
2023/05/06 04:26:22;;;;;;;3.00;1.80;;;11.10;99.90;;;11.98;100.00;98175.63;4919830;29;20545;-76
2023/05/06 04:28:52;;;;;;;1.70;1.60;;;11.10;99.90;;;11.97;100.00;98174.84;4902568;29;20824;-76
2023/05/06 04:31:20;;;;;;;2.67;1.47;;;11.20;99.90;;;11.99;100.00;98183.31;4921039;29;20511;-76
2023/05/06 04:33:48;;;;;;;1.53;1.40;;;11.20;99.90;;;11.98;100.00;98179.06;4919774;29;21060;-76
2023/05/06 04:36:18;;;;;;;16.50;1.90;;;11.20;99.90;;;11.97;100.00;98187.13;4917857;29;20531;-76
2023/05/06 04:38:47;;;;;;;6.93;1.30;;;11.20;99.90;;;11.98;100.00;98189.53;4920032;29;20466;-76
2023/05/06 04:41:17;;;;;;;2.37;1.60;;;11.20;99.90;;;11.99;100.00;98190.34;4915640;29;20895;-76
2023/05/06 04:43:47;;;;;;;1.60;1.50;;;11.20;99.90;;;12.00;100.00;98194.59;4920552;29;20470;-76
2023/05/06 04:46:18;;;;;;;1.63;1.33;;;11.30;99.90;;;12.01;100.00;98196.19;4920138;29;20903;-76
2023/05/06 04:48:48;;;;;;;1.70;1.60;;;11.30;99.90;;;12.04;100.00;98206.31;4916543;29;20521;-76
2023/05/06 04:51:16;;;;;;;1.87;1.60;;;11.30;99.90;;;12.05;100.00;98194.81;4915713;29;21265;-76
2023/05/06 04:53:45;;;;;;;3.00;1.57;;;11.30;99.90;;;12.05;100.00;98202.69;4917788;29;20570;-76
2023/05/06 04:56:13;;;;;;;3.53;2.20;;;11.30;99.90;;;12.01;100.00;98196.19;4918637;29;20486;-76
2023/05/06 04:58:43;;;;;;;2.60;1.90;;;11.40;99.90;;;12.01;100.00;98193.56;4915554;29;20500;-76
2023/05/06 05:01:14;;;;;;;5.87;1.63;;;11.40;99.90;;;12.04;100.00;98203.69;4920857;29;20557;-77
2023/05/06 05:03:44;;;;;;;2.30;1.77;;;11.30;99.90;;;12.05;100.00;98200.06;4918970;29;20466;-76
2023/05/06 05:06:13;;;;;;;5.47;2.00;;;11.40;99.90;;;12.08;100.00;98205.72;4920541;29;20665;-76
2023/05/06 05:08:41;;;;;;;7.90;1.80;;;11.40;99.90;;;12.13;100.00;98207.78;4920749;29;21308;-76
2023/05/06 05:11:10;;;;;;;2.33;1.60;;;11.40;99.90;;;12.16;100.00;98212.63;4917031;29;20545;-76
2023/05/06 05:13:38;;;;;;;6.50;1.73;;;11.40;99.90;;;12.18;100.00;98210.66;4919888;29;20505;-78
2023/05/06 05:16:07;;;;;;;1.97;1.57;;;11.40;99.90;;;12.22;100.00;98211.06;4916261;29;20994;-76
2023/05/06 05:18:36;;;;;;;2.90;1.77;;;11.40;99.90;;;12.25;100.00;98221.94;4918396;29;20553;-76
2023/05/06 05:21:06;;;;;;;1.63;1.43;;;11.50;99.90;;;12.28;100.00;98218.97;4918762;29;21242;-76
2023/05/06 05:23:35;;;;;;;3.80;1.93;;;11.50;99.90;;;12.31;100.00;98212.53;4920315;29;20474;-76
2023/05/06 05:26:04;;;;;;;2.57;1.67;;;11.50;99.90;;;12.34;100.00;98218.19;4918134;29;20529;-76
2023/05/06 05:28:33;;;;;;;1.57;1.27;;;11.50;99.90;;;12.37;100.00;98223.03;4922728;29;20476;-76
2023/05/06 05:31:05;;;;;;;3.77;1.63;;;11.60;99.90;;;12.39;100.00;98220.25;4923353;29;20486;-77
2023/05/06 05:33:36;;;;;;;4.20;1.77;;;11.60;99.90;;;12.42;100.00;98223.28;4923923;29;20528;-76
2023/05/06 05:36:07;;;;;;;2.20;1.60;;;11.60;99.90;;;12.43;100.00;98226.69;4922089;29;20485;-76
2023/05/06 05:38:36;;;;;;;2.40;1.80;;;11.60;99.90;;;12.46;100.00;98228.94;4923768;29;20561;-76
2023/05/06 05:41:05;;;;;;;1.90;1.57;;;11.70;99.90;;;12.49;100.00;98224.13;4921800;29;20471;-76
2023/05/06 05:43:33;;;;;;;2.73;1.40;;;11.70;99.90;;;12.52;100.00;98228.97;4922308;29;20894;-76
2023/05/06 05:46:02;;;;;;;2.63;1.77;;;11.70;99.90;;;12.56;100.00;98230.19;4923410;29;20462;-76
2023/05/06 05:48:31;;;;;;;2.17;1.67;;;11.70;99.90;;;12.58;100.00;98228.19;4922990;29;20506;-76
2023/05/06 05:51:02;;;;;;;4.10;1.83;;;11.80;99.90;;;12.60;100.00;98231.41;4923201;29;20474;-76
2023/05/06 05:53:32;;;;;;;3.37;1.57;;;11.90;99.90;;;12.60;100.00;98230.59;4918468;29;20561;-77
2023/05/06 05:56:00;;;;;;;2.07;1.80;;;11.90;99.90;;;12.63;100.00;98230.25;4917713;29;20553;-76
2023/05/06 05:58:29;;;;;;;13.77;1.83;;;11.80;99.90;;;12.65;100.00;98233.47;4918971;29;20471;-76
2023/05/06 06:00:58;;;;;;;11.33;2.07;;;11.90;99.90;;;12.69;100.00;98241.75;4923063;29;20546;-76
2023/05/06 06:03:26;;;;;;;3.00;2.07;;;11.90;99.90;;;12.69;100.00;98242.56;4920644;29;20641;-76
2023/05/06 06:05:55;;;;;;;2.30;1.60;;;11.90;99.90;;;12.71;100.00;98237.94;4922493;29;20501;-77
2023/05/06 06:08:23;;;;;;;2.53;1.67;;;11.90;99.90;;;12.75;100.00;98233.91;4923332;29;20484;-76
2023/05/06 06:10:54;;;;;;;3.57;2.40;;;11.90;99.90;;;12.78;100.00;98233.50;4920486;29;20998;-77
2023/05/06 06:13:22;;;;;;;1.93;1.60;;;11.90;99.90;;;12.82;100.00;98233.94;4917613;29;20463;-77
2023/05/06 06:15:54;;;;;;;2.30;1.97;;;12.00;99.90;;;12.85;100.00;98226.47;4916802;29;20482;-77
2023/05/06 06:18:23;;;;;;;2.23;2.00;;;12.00;99.90;;;12.89;100.00;98232.13;4917694;29;20499;-76
2023/05/06 06:20:51;;;;;;;3.33;2.03;;;12.10;99.90;;;12.92;100.00;98229.13;4917716;29;20470;-77
2023/05/06 06:23:21;;;;;;;2.50;1.67;;;12.10;99.90;;;12.95;100.00;98226.09;4917800;29;20466;-77
2023/05/06 06:25:50;;;;;;;4.27;2.53;;;12.10;99.90;;;12.98;100.00;98230.97;4912326;29;20510;-75
2023/05/06 06:28:20;;;;;;;24.13;10.70;;;12.20;99.90;;;13.01;100.00;98233.19;4917001;29;20929;-77
2023/05/06 06:30:49;;;;;;;7.00;3.60;;;12.20;99.90;;;13.05;100.00;98229.19;4919393;29;20576;-77
2023/05/06 06:33:18;;;;;;;9.97;2.13;;;12.30;99.90;;;13.08;100.00;98234.81;4917926;29;20462;-77
2023/05/06 06:35:46;;;;;;;1.60;1.50;;;12.30;99.90;;;13.15;100.00;98228.81;4915468;29;20636;-77
2023/05/06 06:38:15;;;;;;;8.87;3.60;;;12.40;99.90;;;13.18;100.00;98239.75;4917544;29;20482;-76
2023/05/06 06:40:44;;;;;;;2.00;1.80;;;12.40;99.90;;;13.22;100.00;98240.16;4918064;29;20505;-77
2023/05/06 06:43:12;;;;;;;2.20;1.60;;;12.50;99.90;;;13.26;100.00;98231.66;4917044;29;21171;-77
2023/05/06 06:45:47;;;;;;;5.67;2.10;;;12.60;99.90;;;13.33;100.00;98232.47;4919532;29;20522;-77
2023/05/06 06:48:16;;;;;;;3.00;2.00;;;12.70;99.90;;;13.39;100.00;98231.69;4921362;29;20810;-77
2023/05/06 06:50:44;;;;;;;1.60;1.50;;;12.70;99.90;;;13.47;100.00;98238.56;4903849;29;20549;-77
2023/05/06 06:53:13;;;;;;;2.47;1.63;;;12.80;99.90;;;13.54;100.00;98237.56;4923188;29;20514;-77
2023/05/06 06:55:44;;;;;;;5.00;2.00;;;12.90;99.90;;;13.61;100.00;98235.75;4922280;29;20536;-77
2023/05/06 06:58:13;;;;;;;2.60;1.33;;;12.90;99.90;;;13.69;100.00;98234.75;4918761;29;20502;-77
2023/05/06 07:00:42;;;;;;;1.73;1.63;;;12.90;99.90;;;13.77;100.00;98231.13;4921684;29;20478;-76
2023/05/06 07:03:14;;;;;;;2.30;1.70;;;13.00;99.90;;;13.84;100.00;98231.91;4920948;29;20510;-76
2023/05/06 07:05:44;;;;;;;3.10;1.70;;;13.20;99.90;;;13.91;100.00;98240.63;4919796;29;20470;-76
2023/05/06 07:08:15;;;;;;;4.33;2.10;;;13.20;99.90;;;13.96;100.00;98232.91;4920231;29;20481;-77
2023/05/06 07:10:44;;;;;;;3.60;1.73;;;13.30;99.90;;;14.03;100.00;98229.28;4921695;29;20974;-76
2023/05/06 07:13:13;;;;;;;3.00;1.73;;;13.30;99.90;;;14.10;100.00;98239.78;4921509;29;20835;-76
2023/05/06 07:15:43;;;;;;;3.97;1.90;;;13.40;99.90;;;14.13;100.00;98251.72;4921632;29;21061;-76
2023/05/06 07:18:12;;;;;;;2.93;2.30;;;13.40;99.90;;;14.20;100.00;98244.59;4921216;29;20550;-77
2023/05/06 07:20:41;;;;;;;2.83;2.00;;;13.50;99.90;;;14.26;100.00;98239.38;4921634;29;20466;-76
2023/05/06 07:23:10;;;;;;;3.07;1.80;;;13.70;99.90;;;14.30;100.00;98240.53;4921044;29;20467;-76
2023/05/06 07:25:38;;;;;;;3.80;1.83;;;13.60;99.90;;;14.36;100.00;98239.78;4921555;29;20573;-76
2023/05/06 07:28:07;;;;;;;2.07;1.87;;;13.60;99.90;;;14.44;100.00;98241.34;4919392;29;20545;-76
2023/05/06 07:30:38;;;;;;;2.70;2.17;;;13.70;99.90;;;14.50;100.00;98238.72;4920111;29;20528;-76
2023/05/06 07:33:08;;;;;;;3.20;1.73;;;13.70;99.90;;;14.54;100.00;98241.75;4921173;29;20755;-76
2023/05/06 07:35:37;;;;;;;3.17;1.90;;;13.70;99.90;;;14.63;100.00;98250.22;4919423;29;20508;-76
2023/05/06 07:38:06;;;;;;;4.70;1.90;;;13.90;99.90;;;14.72;100.00;98243.69;4921388;29;20569;-76
2023/05/06 07:40:34;;;;;;;4.00;1.80;;;14.00;99.90;;;14.82;100.00;98249.34;4915806;29;21060;-76
2023/05/06 07:43:03;;;;;;;10.47;4.20;;;14.20;99.90;;;14.92;100.00;98249.72;4915599;29;21013;-76
2023/05/06 07:45:32;;;;;;;3.57;1.83;;;14.30;99.90;;;15.01;100.00;98237.91;4916768;29;21081;-77
2023/05/06 07:48:00;;;;;;;5.07;1.70;;;14.40;99.90;;;15.11;100.00;98251.44;4902817;29;20482;-76
2023/05/06 07:50:31;;;;;;;6.90;1.80;;;14.40;99.90;;;15.13;100.00;98236.25;4919368;29;21110;-77
2023/05/06 07:53:00;;;;;;;3.87;1.57;;;14.40;99.90;;;15.20;100.00;98236.19;4921421;29;21074;-77
2023/05/06 07:55:30;;;;;;;2.03;1.67;;;14.50;99.90;;;15.27;100.00;98247.50;4909654;29;20538;-76
2023/05/06 07:58:01;;;;;;;4.30;1.57;;;14.50;99.90;;;15.35;100.00;98244.59;4913866;29;20504;-76
2023/05/06 08:00:29;;;;;;;4.03;1.70;;;14.70;99.90;;;15.42;100.00;98240.91;4898974;29;21013;-76
2023/05/06 08:02:58;;;;;;;4.87;1.73;;;14.80;99.90;;;15.50;100.00;98235.44;4914923;29;20493;-76
2023/05/06 08:05:26;;;;;;;2.23;1.50;;;14.90;99.90;;;15.58;100.00;98234.34;4912222;29;20583;-77
2023/05/06 08:07:56;;;;;;;2.87;1.57;;;15.00;99.90;;;15.64;100.00;98230.03;4915730;29;20529;-77
2023/05/06 08:10:25;;;;;;;3.40;1.67;;;15.00;99.90;;;15.68;100.00;98236.50;4897872;29;20891;-76
2023/05/06 08:12:53;;;;;;;1.73;1.37;;;15.00;99.90;;;15.76;100.00;98237.03;4918420;29;20470;-76
2023/05/06 08:15:22;;;;;;;1.40;1.30;;;15.00;99.90;;;15.80;100.00;98242.69;4916195;29;20915;-76
2023/05/06 08:17:51;;;;;;;13.33;1.90;;;15.20;99.90;;;15.83;100.00;98236.97;4914200;29;20463;-76
2023/05/06 08:20:20;;;;;;;4.40;1.37;;;15.20;99.90;;;15.86;100.00;98242.63;4913712;29;20481;-76
2023/05/06 08:22:49;;;;;;;2.93;1.63;;;15.30;99.90;;;15.89;100.00;98236.94;4913180;29;20510;-76
2023/05/06 08:25:18;;;;;;;2.27;1.50;;;15.30;99.90;;;15.95;100.00;98245.81;4915543;29;21005;-76
2023/05/06 08:27:47;;;;;;;2.73;1.50;;;15.40;99.90;;;15.98;100.00;98237.47;4916706;29;21019;-76
2023/05/06 08:30:17;;;;;;;1.80;1.57;;;15.40;99.90;;;16.01;100.00;98242.31;4916194;29;20953;-76
2023/05/06 08:32:46;;;;;;;3.03;1.47;;;15.50;99.90;;;16.03;100.00;98246.38;4917427;29;21146;-76
2023/05/06 08:35:16;;;;;;;2.07;1.50;;;15.40;99.90;;;16.08;100.00;98235.97;4914732;29;20478;-76
2023/05/06 08:37:45;;;;;;;3.27;1.80;;;15.60;99.90;;;16.14;100.00;98236.91;4914493;29;20621;-76
2023/05/06 08:40:21;;;;;;;5.73;1.90;;;15.50;99.90;;;16.20;100.00;98232.59;4914179;29;20478;-76
2023/05/06 08:42:50;;;;;;;2.10;1.50;;;15.50;99.90;;;16.24;100.00;98231.97;4914316;29;20474;-76
2023/05/06 08:45:20;;;;;;;3.77;1.63;;;15.60;99.90;;;16.32;100.00;98231.66;4916017;29;20481;-76
2023/05/06 08:47:49;;;;;;;2.20;1.60;;;15.60;99.90;;;16.34;100.00;98234.91;4915456;29;20482;-76
2023/05/06 08:50:21;;;;;;;2.73;1.47;;;15.70;99.90;;;16.36;100.00;98227.56;4914661;29;20508;-76
2023/05/06 08:52:51;;;;;;;2.20;1.50;;;15.80;99.90;;;16.42;100.00;98221.41;4913264;29;21058;-76
2023/05/06 08:55:26;;;;;;;2.10;1.20;;;15.80;99.90;;;16.49;100.00;98226.59;4913531;29;20876;-76
2023/05/06 08:57:58;;;;;;;3.00;1.30;;;15.80;99.90;;;16.56;100.00;98219.44;4914171;29;20883;-76
2023/05/06 09:00:28;;;;;;;2.13;1.43;;;15.90;99.90;;;16.63;100.00;98209.63;4884422;29;20914;-76
2023/05/06 09:03:00;;;;;;;2.70;1.20;;;16.00;99.90;;;16.71;100.00;98205.88;4913229;29;20474;-76
2023/05/06 09:05:32;;;;;;;1.87;1.37;;;16.00;99.90;;;16.77;100.00;98210.25;4917461;29;20876;-76
2023/05/06 09:08:01;;;;;;;3.80;1.37;;;16.10;99.90;;;16.81;100.00;98208.78;4898122;29;20459;-76
2023/05/06 09:10:42;;;;;;;1.67;1.13;;;16.20;99.90;;;16.87;100.00;98210.56;4898797;29;20534;-76
2023/05/06 09:13:15;;;;;;;2.77;1.47;;;16.30;99.90;;;16.91;100.00;98203.78;4916616;29;20462;-76
2023/05/06 09:15:48;;;;;;;2.80;1.20;;;16.40;99.90;;;16.93;100.00;98205.19;4918166;29;20883;-76
2023/05/06 09:18:17;;;;;;;5.10;1.40;;;16.40;99.90;;;16.98;100.00;98205.31;4915911;29;20466;-76
2023/05/06 09:20:48;;;;;;;2.13;1.17;;;16.50;99.90;;;17.01;100.00;98204.03;4917259;29;20562;-76
2023/05/06 09:23:19;;;;;;;1.77;1.27;;;16.60;99.90;;;17.04;100.00;98206.28;4915428;29;21053;-76
2023/05/06 09:25:50;;;;;;;1.23;1.07;;;16.60;99.90;;;17.07;100.00;98208.47;4912350;29;21013;-76
2023/05/06 09:28:19;;;;;;;1.30;1.03;;;16.60;99.90;;;17.12;100.00;98203.28;4902065;29;20733;-76
2023/05/06 09:30:50;;;;;;;1.63;1.20;;;16.60;99.90;;;17.15;100.00;98200.19;4919443;29;20462;-76
2023/05/06 09:33:22;;;;;;;1.30;1.07;;;16.60;99.90;;;17.14;100.00;98201.25;4919844;29;20569;-77
2023/05/06 09:35:51;;;;;;;1.50;1.10;;;16.50;99.90;;;17.19;100.00;98204.00;4918972;29;20525;-77
2023/05/06 09:38:27;;;;;;;4.63;1.20;;;16.60;99.90;;;17.19;100.00;98204.00;4919666;29;20558;-76
2023/05/06 09:41:06;;;;;;;2.20;1.13;;;16.60;99.90;;;17.21;100.00;98199.31;4918909;29;20535;-76
2023/05/06 09:43:36;;;;;;;1.40;1.00;;;16.60;99.90;;;17.26;100.00;98201.25;4919591;29;20510;-77
2023/05/06 09:46:05;;;;;;;1.27;1.07;;;16.60;99.90;;;17.28;100.00;98204.50;4919816;29;20854;-77
2023/05/06 09:48:35;;;;;;;2.43;1.40;;;16.60;99.90;;;17.28;100.00;98204.50;4919406;29;20993;-76
2023/05/06 09:51:06;;;;;;;2.17;1.20;;;16.70;99.90;;;17.29;100.00;98200.81;4919584;29;20869;-76
2023/05/06 09:53:36;;;;;;;2.07;1.37;;;16.70;99.90;;;17.26;100.00;98204.72;4924858;29;20895;-77
2023/05/06 09:56:08;;;;;;;5.10;1.60;;;16.70;99.90;;;17.22;100.00;98195.63;4923212;29;20573;-77
2023/05/06 09:58:37;;;;;;;1.73;1.00;;;16.60;99.90;;;17.23;100.00;98196.44;4927548;29;20481;-77
2023/05/06 10:01:08;;;;;;;1.60;1.00;;;16.50;99.90;;;17.24;100.00;98198.88;4926578;29;20526;-77
2023/05/06 10:03:40;;;;;;;4.73;1.80;;;16.50;99.90;;;17.28;100.00;98193.94;4926462;29;20465;-77
2023/05/06 10:06:11;;;;;;;2.87;1.40;;;16.50;99.90;;;17.28;100.00;98194.75;4924812;29;20534;-77
2023/05/06 10:08:44;;;;;;;2.33;1.13;;;16.60;99.90;;;17.27;100.00;98192.31;4924693;29;20722;-77
2023/05/06 10:11:15;;;;;;;2.90;1.40;;;16.70;99.90;;;17.25;100.00;98194.38;4924331;29;20517;-76
2023/05/06 10:13:46;;;;;;;1.43;1.10;;;16.70;99.90;;;17.25;100.00;98183.81;4923990;29;20474;-77
2023/05/06 10:16:16;;;;;;;4.40;1.47;;;16.60;99.90;;;17.26;100.00;98191.50;4919721;29;20847;-76
2023/05/06 10:18:48;;;;;;;26.10;11.70;;;16.60;99.90;;;17.29;100.00;98184.94;4923126;29;20522;-76
2023/05/06 10:21:26;;;;;;;6.40;3.37;;;16.70;99.90;;;17.30;100.00;98191.84;4919299;29;20483;-76
2023/05/06 10:24:05;;;;;;;1.60;1.27;;;16.70;99.90;;;17.36;100.00;98190.94;4922656;29;20473;-76